Time;durP1;ratioP1;P1;durP2;ratioP2;P2;SDS_P1;SDS_P2;PMS_P1;PMS_P2;Temp;Humidity;BMP_temperature;BMP_pressure;BME280_temperature;BME280_humidity;BME280_pressure;Samples;Min_cycle;Max_cycle;Signal;HPM_P1;HPM_P2
2024/03/19 00:00:26;;;;;;;8.63;7.67;;;12.50;99.90;;;;;;5016751;28;20236;-71
2024/03/19 00:02:51;;;;;;;12.67;9.17;;;12.50;99.90;;;;;;5011629;28;20418;-71
2024/03/19 00:05:17;;;;;;;11.23;8.73;;;12.50;99.90;;;;;;5015056;28;20232;-71
2024/03/19 00:07:42;;;;;;;10.87;9.00;;;12.50;99.90;;;;;;5015882;28;20275;-71
2024/03/19 00:10:08;;;;;;;11.30;9.40;;;12.50;99.90;;;;;;5010392;28;20180;-71
2024/03/19 00:12:34;;;;;;;9.47;8.50;;;12.50;99.90;;;;;;5021576;28;20177;-71
2024/03/19 00:14:59;;;;;;;11.83;9.57;;;12.40;99.90;;;;;;5012379;28;20470;-71
2024/03/19 00:17:28;;;;;;;11.07;9.47;;;12.40;99.90;;;;;;5017348;28;20204;-71
2024/03/19 00:19:54;;;;;;;10.63;9.50;;;12.40;99.90;;;;;;5008185;28;20190;-70
2024/03/19 00:22:20;;;;;;;12.50;9.33;;;12.40;99.90;;;;;;5014739;28;20420;-72
2024/03/19 00:24:47;;;;;;;10.10;9.10;;;12.40;99.90;;;;;;5013395;28;20197;-72
2024/03/19 00:27:12;;;;;;;9.87;8.53;;;12.40;99.90;;;;;;5023503;28;20454;-72
2024/03/19 00:29:40;;;;;;;10.10;9.10;;;12.40;99.90;;;;;;5014044;28;20236;-71
2024/03/19 00:32:06;;;;;;;12.60;9.20;;;12.30;99.90;;;;;;5011806;28;20186;-71
2024/03/19 00:34:31;;;;;;;10.17;9.10;;;12.30;99.90;;;;;;5013300;28;20436;-71
2024/03/19 00:36:59;;;;;;;9.77;8.17;;;12.30;99.90;;;;;;5015977;28;20477;-71
2024/03/19 00:39:24;;;;;;;9.87;8.60;;;12.30;99.90;;;;;;5015281;28;20212;-72
2024/03/19 00:41:50;;;;;;;9.67;8.67;;;12.30;99.90;;;;;;5016665;28;20443;-71
2024/03/19 00:44:17;;;;;;;12.73;10.20;;;12.20;99.90;;;;;;5013116;28;20201;-71
2024/03/19 00:46:43;;;;;;;12.47;9.40;;;12.20;99.90;;;;;;5019431;28;20185;-71
2024/03/19 00:49:09;;;;;;;10.57;9.33;;;12.20;99.90;;;;;;5017070;28;20423;-71
2024/03/19 00:51:35;;;;;;;11.40;9.20;;;12.10;99.90;;;;;;5017892;28;20209;-71
2024/03/19 00:54:00;;;;;;;9.07;8.17;;;12.10;99.90;;;;;;5013969;28;20892;-71
2024/03/19 00:56:26;;;;;;;12.33;9.20;;;12.10;99.90;;;;;;5017995;28;20271;-71
2024/03/19 00:58:51;;;;;;;10.23;9.23;;;12.10;99.90;;;;;;5016325;28;20169;-71
2024/03/19 01:01:17;;;;;;;10.37;7.83;;;12.00;99.90;;;;;;5013217;28;20177;-71
2024/03/19 01:03:42;;;;;;;9.60;8.53;;;12.00;99.90;;;;;;5015686;28;20184;-72
2024/03/19 01:06:09;;;;;;;11.60;9.00;;;12.00;99.90;;;;;;5015944;28;20204;-72
2024/03/19 01:08:34;;;;;;;9.53;8.43;;;12.00;99.90;;;;;;5010379;28;20192;-72
2024/03/19 01:11:01;;;;;;;9.67;8.67;;;12.00;99.90;;;;;;5011433;28;20566;-72
2024/03/19 01:13:27;;;;;;;11.13;9.03;;;11.90;99.90;;;;;;5009266;28;20192;-72
2024/03/19 01:15:52;;;;;;;10.80;8.30;;;11.90;99.90;;;;;;5010027;28;20518;-72
2024/03/19 01:18:18;;;;;;;10.80;8.83;;;11.90;99.90;;;;;;5008179;28;20691;-72
2024/03/19 01:20:43;;;;;;;13.17;10.10;;;11.90;99.90;;;;;;5016387;28;20204;-72
2024/03/19 01:23:09;;;;;;;11.27;8.80;;;11.90;99.90;;;;;;5012639;28;20936;-72
2024/03/19 01:25:35;;;;;;;11.30;8.37;;;11.90;99.90;;;;;;5020705;28;20205;-72
2024/03/19 01:28:00;;;;;;;9.83;8.60;;;11.90;99.90;;;;;;5013707;28;20195;-72
2024/03/19 01:30:26;;;;;;;9.90;8.60;;;11.90;99.90;;;;;;5011484;28;20268;-72
2024/03/19 01:32:51;;;;;;;9.90;8.80;;;11.80;99.90;;;;;;5007321;28;20185;-72
2024/03/19 01:35:17;;;;;;;10.83;9.67;;;11.80;99.90;;;;;;5017897;28;20288;-72
2024/03/19 01:37:42;;;;;;;13.43;9.23;;;11.80;99.90;;;;;;5018856;28;20223;-72
2024/03/19 01:40:08;;;;;;;12.50;9.00;;;11.80;99.90;;;;;;5010936;28;20181;-73
2024/03/19 01:42:34;;;;;;;9.63;8.73;;;11.80;99.90;;;;;;5014877;28;20178;-73
2024/03/19 01:45:11;;;;;;;9.77;8.20;;;11.80;99.90;;;;;;5013763;28;20525;-73
2024/03/19 01:47:37;;;;;;;10.47;8.90;;;11.80;99.90;;;;;;5015069;28;20295;-74
2024/03/19 01:50:09;;;;;;;8.30;7.50;;;11.70;99.90;;;;;;5014724;28;20419;-73
2024/03/19 01:52:38;;;;;;;12.53;8.00;;;11.70;99.90;;;;;;5016852;28;20446;-73
2024/03/19 01:55:05;;;;;;;10.87;8.40;;;11.70;99.90;;;;;;5006168;28;20458;-73
2024/03/19 01:57:31;;;;;;;9.30;8.27;;;11.70;99.90;;;;;;5007886;28;21222;-73
2024/03/19 01:59:57;;;;;;;9.80;8.33;;;11.70;99.90;;;;;;5006712;28;20432;-73
2024/03/19 02:02:36;;;;;;;9.20;8.00;;;11.70;99.90;;;;;;5008005;28;20185;-73
2024/03/19 02:05:04;;;;;;;8.80;7.50;;;11.60;99.90;;;;;;5024472;28;20470;-73
2024/03/19 02:07:31;;;;;;;8.27;7.47;;;11.60;99.90;;;;;;5010081;28;20431;-73
2024/03/19 02:09:56;;;;;;;9.33;6.90;;;11.60;99.90;;;;;;5005988;28;20432;-73
2024/03/19 02:12:23;;;;;;;9.33;6.30;;;11.60;99.90;;;;;;5008169;28;20842;-72
2024/03/19 02:14:49;;;;;;;10.43;6.60;;;11.60;99.90;;;;;;5006192;28;20753;-72
2024/03/19 02:17:15;;;;;;;6.83;6.17;;;11.60;99.90;;;;;;5008544;28;20467;-72
2024/03/19 02:19:41;;;;;;;8.00;6.40;;;11.50;99.90;;;;;;5011171;28;20518;-72
2024/03/19 02:22:09;;;;;;;6.10;5.40;;;11.50;99.90;;;;;;5010984;28;20545;-72
2024/03/19 02:24:38;;;;;;;8.00;6.30;;;11.50;99.90;;;;;;5007669;28;20823;-73
2024/03/19 02:27:04;;;;;;;8.20;5.97;;;11.50;99.90;;;;;;5007647;28;20873;-72
2024/03/19 02:29:30;;;;;;;7.00;5.90;;;11.50;99.90;;;;;;5009268;28;20465;-72
2024/03/19 02:31:55;;;;;;;7.07;6.10;;;11.50;99.90;;;;;;5007941;28;20735;-72
2024/03/19 02:34:21;;;;;;;7.23;6.53;;;11.50;99.90;;;;;;5010679;28;20223;-72
2024/03/19 02:36:46;;;;;;;9.63;7.17;;;11.40;99.90;;;;;;5010415;28;20212;-72
2024/03/19 02:39:12;;;;;;;8.57;7.03;;;11.40;99.90;;;;;;5006633;28;20185;-72
2024/03/19 02:41:41;;;;;;;8.33;7.07;;;11.40;99.90;;;;;;5012898;28;20227;-72
2024/03/19 02:44:06;;;;;;;11.20;8.43;;;11.30;99.90;;;;;;5011271;28;20197;-72
2024/03/19 02:46:32;;;;;;;8.63;7.73;;;11.30;99.90;;;;;;5006930;28;20493;-72
2024/03/19 02:48:58;;;;;;;13.23;7.83;;;11.30;99.90;;;;;;5007168;28;20275;-72
2024/03/19 02:51:25;;;;;;;10.50;7.40;;;11.30;99.90;;;;;;5012796;28;20189;-72
2024/03/19 02:53:51;;;;;;;9.23;7.03;;;11.30;99.90;;;;;;5011266;28;20427;-72
2024/03/19 02:56:16;;;;;;;9.87;7.60;;;11.30;99.90;;;;;;5008460;28;20415;-73
2024/03/19 02:58:42;;;;;;;8.03;7.23;;;11.30;99.90;;;;;;5005420;28;20897;-73
2024/03/19 03:01:07;;;;;;;8.70;7.57;;;11.20;99.90;;;;;;5005512;28;20647;-74
2024/03/19 03:03:34;;;;;;;9.00;6.63;;;11.20;99.90;;;;;;5005038;28;20177;-73
2024/03/19 03:06:00;;;;;;;8.80;7.90;;;11.20;99.90;;;;;;5013431;28;20180;-73
2024/03/19 03:08:26;;;;;;;7.93;7.07;;;11.20;99.90;;;;;;5011733;28;20834;-71
2024/03/19 03:10:54;;;;;;;10.00;7.10;;;11.20;99.90;;;;;;5012030;28;20284;-73
2024/03/19 03:13:20;;;;;;;11.70;7.90;;;11.20;99.90;;;;;;5007614;28;20460;-73
2024/03/19 03:15:46;;;;;;;7.30;6.50;;;11.20;99.90;;;;;;5009296;28;20525;-73
2024/03/19 03:18:11;;;;;;;10.07;7.17;;;11.20;99.90;;;;;;5007199;28;21845;-73
2024/03/19 03:20:37;;;;;;;8.07;6.90;;;11.10;99.90;;;;;;5013558;28;20193;-73
2024/03/19 03:23:03;;;;;;;7.00;6.30;;;11.10;99.90;;;;;;5009644;28;20176;-73
2024/03/19 03:25:31;;;;;;;9.00;6.77;;;11.10;99.90;;;;;;5010493;28;20481;-73
2024/03/19 03:27:58;;;;;;;7.87;7.07;;;11.10;99.90;;;;;;5017145;28;20425;-73
2024/03/19 03:30:24;;;;;;;8.37;6.57;;;11.10;99.90;;;;;;5019391;28;20462;-73
2024/03/19 03:32:50;;;;;;;8.47;7.67;;;11.10;99.90;;;;;;5014801;28;20434;-72
2024/03/19 03:35:19;;;;;;;6.30;5.70;;;11.10;99.90;;;;;;5018403;28;20444;-72
2024/03/19 03:37:45;;;;;;;7.70;6.43;;;11.10;99.90;;;;;;5020312;28;20467;-72
2024/03/19 03:40:17;;;;;;;8.73;6.00;;;11.10;99.90;;;;;;5016260;28;20440;-72
2024/03/19 03:42:46;;;;;;;6.63;5.40;;;11.00;99.90;;;;;;5010377;28;20492;-72
2024/03/19 03:45:13;;;;;;;6.70;6.00;;;11.00;99.90;;;;;;5012984;28;20420;-72
2024/03/19 03:47:39;;;;;;;6.40;5.40;;;11.00;99.90;;;;;;5014652;28;20441;-72
2024/03/19 03:50:08;;;;;;;8.63;5.90;;;11.00;99.90;;;;;;5012218;28;20555;-73
2024/03/19 03:52:33;;;;;;;8.50;6.53;;;11.00;99.90;;;;;;5012934;28;20431;-72
2024/03/19 03:55:03;;;;;;;6.50;5.10;;;11.00;99.90;;;;;;5009653;28;20470;-72
2024/03/19 03:57:28;;;;;;;7.90;5.30;;;11.00;99.90;;;;;;5009661;28;20251;-72
2024/03/19 03:59:54;;;;;;;6.93;5.80;;;10.90;99.90;;;;;;5011155;28;20436;-72
2024/03/19 04:02:20;;;;;;;8.10;5.53;;;10.90;99.90;;;;;;5008428;28;20678;-71
2024/03/19 04:04:45;;;;;;;6.10;4.73;;;10.90;99.90;;;;;;5009344;28;20209;-72
2024/03/19 04:07:11;;;;;;;7.20;5.60;;;10.90;99.90;;;;;;5013162;28;20675;-72
2024/03/19 04:09:36;;;;;;;9.00;4.90;;;10.90;99.90;;;;;;5017062;28;20547;-72
2024/03/19 04:12:02;;;;;;;6.63;4.80;;;10.90;99.90;;;;;;5010072;28;20189;-72
2024/03/19 04:14:28;;;;;;;8.13;5.23;;;10.90;99.90;;;;;;5021973;28;20808;-72
2024/03/19 04:16:54;;;;;;;5.70;5.10;;;10.90;99.90;;;;;;5013254;28;20464;-72
2024/03/19 04:19:19;;;;;;;5.97;5.20;;;10.90;99.90;;;;;;5015270;28;20270;-74
2024/03/19 04:21:45;;;;;;;6.40;5.13;;;10.80;99.90;;;;;;5015204;28;20294;-73
2024/03/19 04:24:11;;;;;;;6.47;5.60;;;10.80;99.90;;;;;;5011144;28;20577;-72
2024/03/19 04:26:38;;;;;;;6.60;5.90;;;10.80;99.90;;;;;;5010551;28;20439;-72
2024/03/19 04:29:04;;;;;;;6.10;5.30;;;10.80;99.90;;;;;;5015691;28;20912;-71
2024/03/19 04:31:30;;;;;;;8.03;6.17;;;10.80;99.90;;;;;;5011079;28;20466;-73
2024/03/19 04:33:56;;;;;;;6.77;6.07;;;10.80;99.90;;;;;;5014414;28;20456;-72
2024/03/19 04:36:22;;;;;;;6.03;5.43;;;10.80;99.90;;;;;;5011682;28;20810;-72
2024/03/19 04:38:48;;;;;;;6.10;5.50;;;10.70;99.90;;;;;;5016416;28;20203;-70
2024/03/19 04:41:13;;;;;;;6.80;5.97;;;10.70;99.90;;;;;;5011518;28;21204;-71
2024/03/19 04:43:39;;;;;;;5.63;5.13;;;10.70;99.90;;;;;;5017070;28;20172;-72
2024/03/19 04:46:05;;;;;;;5.83;5.07;;;10.70;99.90;;;;;;5012569;28;20213;-72
2024/03/19 04:48:30;;;;;;;5.90;5.10;;;10.60;99.90;;;;;;5013306;28;20263;-72
2024/03/19 04:50:56;;;;;;;6.97;5.40;;;10.60;99.90;;;;;;5013399;28;20193;-71
2024/03/19 04:53:21;;;;;;;6.60;5.17;;;10.60;99.90;;;;;;5014457;28;20193;-71
2024/03/19 04:55:47;;;;;;;5.50;5.00;;;10.50;99.90;;;;;;5016346;28;20215;-71
2024/03/19 04:58:13;;;;;;;6.33;4.67;;;10.50;99.90;;;;;;5013081;28;20219;-71
2024/03/19 05:00:38;;;;;;;5.90;5.33;;;10.50;99.90;;;;;;5015457;28;20276;-71
2024/03/19 05:03:04;;;;;;;6.00;5.17;;;10.40;99.90;;;;;;5020832;28;20180;-71
2024/03/19 05:05:30;;;;;;;5.93;5.37;;;10.40;99.90;;;;;;5011865;28;20204;-71
2024/03/19 05:07:55;;;;;;;7.53;5.40;;;10.40;99.90;;;;;;5018622;28;20176;-71
2024/03/19 05:10:21;;;;;;;6.00;5.20;;;10.40;99.90;;;;;;5015965;28;20611;-71
2024/03/19 05:12:46;;;;;;;6.83;5.50;;;10.30;99.90;;;;;;5015306;28;20185;-71
2024/03/19 05:15:12;;;;;;;6.90;5.70;;;10.30;99.90;;;;;;5012210;28;20297;-71
2024/03/19 05:17:38;;;;;;;5.90;5.30;;;10.30;99.90;;;;;;5015323;28;20213;-71
2024/03/19 05:20:06;;;;;;;8.10;6.77;;;10.30;99.90;;;;;;5010509;28;20191;-70
2024/03/19 05:22:31;;;;;;;7.90;5.60;;;10.30;99.90;;;;;;5011643;28;20174;-71
2024/03/19 05:24:57;;;;;;;8.07;6.50;;;10.30;99.90;;;;;;5011157;28;20450;-71
2024/03/19 05:27:22;;;;;;;7.37;6.07;;;10.20;99.90;;;;;;5011879;28;20256;-71
2024/03/19 05:29:48;;;;;;;13.00;7.33;;;10.20;99.90;;;;;;5014180;28;20205;-70
2024/03/19 05:32:14;;;;;;;7.40;5.93;;;10.20;99.90;;;;;;5018112;28;20188;-70
2024/03/19 05:34:41;;;;;;;7.13;6.03;;;10.10;99.90;;;;;;5014091;28;20602;-71
2024/03/19 05:37:07;;;;;;;10.13;6.17;;;10.10;99.90;;;;;;5012956;28;20550;-72
2024/03/19 05:39:33;;;;;;;6.60;5.90;;;10.20;99.90;;;;;;5010769;28;20518;-70
2024/03/19 05:41:59;;;;;;;7.80;6.40;;;10.10;99.90;;;;;;5011736;28;20181;-70
2024/03/19 05:44:24;;;;;;;6.70;5.83;;;10.10;99.90;;;;;;5007058;28;20463;-70
2024/03/19 05:46:50;;;;;;;6.40;5.80;;;10.00;99.90;;;;;;5011985;28;20177;-70
2024/03/19 05:49:16;;;;;;;6.83;5.40;;;9.90;99.90;;;;;;5009096;28;20692;-70
2024/03/19 05:51:42;;;;;;;6.63;5.70;;;9.90;99.90;;;;;;5014594;28;20184;-70
2024/03/19 05:54:08;;;;;;;9.37;6.27;;;9.90;99.90;;;;;;5011846;28;20207;-70
2024/03/19 05:56:33;;;;;;;6.40;5.80;;;9.80;99.90;;;;;;5009497;28;20436;-70
2024/03/19 05:58:59;;;;;;;6.90;5.90;;;9.90;99.90;;;;;;5013140;28;20172;-70
2024/03/19 06:01:24;;;;;;;6.63;6.03;;;9.90;99.90;;;;;;5010642;28;20309;-70
2024/03/19 06:03:50;;;;;;;7.13;5.90;;;9.90;99.90;;;;;;5009151;28;20556;-70
2024/03/19 06:06:15;;;;;;;7.87;5.83;;;9.90;99.90;;;;;;5012141;28;20174;-71
2024/03/19 06:08:41;;;;;;;7.30;6.60;;;9.90;99.90;;;;;;5010051;28;20177;-70
2024/03/19 06:11:07;;;;;;;6.70;5.50;;;9.90;99.90;;;;;;5012195;28;20208;-70
2024/03/19 06:13:33;;;;;;;7.20;5.67;;;10.00;99.90;;;;;;5017075;28;20204;-70
2024/03/19 06:16:00;;;;;;;6.33;5.37;;;10.00;99.90;;;;;;5013017;28;20193;-70
2024/03/19 06:18:26;;;;;;;6.70;5.07;;;10.00;99.90;;;;;;5011615;28;20588;-70
2024/03/19 06:20:52;;;;;;;6.47;5.50;;;10.00;99.90;;;;;;5017155;28;20435;-70
2024/03/19 06:23:17;;;;;;;6.40;5.60;;;10.10;99.90;;;;;;5015653;28;20416;-70
2024/03/19 06:25:43;;;;;;;7.37;6.10;;;10.10;99.90;;;;;;5010800;28;20292;-70
2024/03/19 06:28:10;;;;;;;6.70;5.90;;;10.10;99.90;;;;;;5012683;28;20667;-70
2024/03/19 06:30:35;;;;;;;9.30;6.30;;;10.20;99.90;;;;;;5014714;28;20286;-70
2024/03/19 06:33:01;;;;;;;6.20;5.47;;;10.20;99.90;;;;;;5010478;28;21070;-71
2024/03/19 06:35:29;;;;;;;6.33;5.73;;;10.30;99.90;;;;;;5011131;28;20204;-71
2024/03/19 06:37:54;;;;;;;6.90;6.20;;;10.40;99.90;;;;;;5017799;28;20243;-71
2024/03/19 06:40:21;;;;;;;7.70;6.33;;;10.40;99.90;;;;;;5018932;28;20419;-71
2024/03/19 06:42:46;;;;;;;8.10;6.90;;;10.50;99.90;;;;;;5012394;28;20738;-71
2024/03/19 06:45:12;;;;;;;6.97;6.00;;;10.60;99.90;;;;;;5013977;28;20443;-71
2024/03/19 06:47:38;;;;;;;9.40;5.80;;;10.70;99.90;;;;;;5010153;28;20180;-71
2024/03/19 06:50:07;;;;;;;7.57;5.60;;;10.70;99.90;;;;;;5008698;28;20681;-71
2024/03/19 06:52:33;;;;;;;6.20;5.40;;;10.80;99.90;;;;;;5011858;28;20247;-71
2024/03/19 06:54:59;;;;;;;6.03;4.93;;;10.80;99.90;;;;;;5011799;28;20485;-71
2024/03/19 06:57:25;;;;;;;7.00;5.53;;;10.90;99.90;;;;;;5011554;28;20458;-70
2024/03/19 06:59:51;;;;;;;6.43;5.77;;;11.00;99.90;;;;;;5011631;28;20437;-70
2024/03/19 07:02:18;;;;;;;6.97;6.20;;;11.10;99.90;;;;;;5011178;28;20169;-70
2024/03/19 07:04:44;;;;;;;6.83;6.10;;;11.10;99.90;;;;;;5009815;28;20730;-71
2024/03/19 07:07:13;;;;;;;7.03;5.63;;;11.20;99.90;;;;;;5006730;28;20408;-70
2024/03/19 07:09:40;;;;;;;7.20;6.03;;;11.30;99.90;;;;;;5010378;28;20519;-71
2024/03/19 07:12:06;;;;;;;7.30;5.90;;;11.30;99.90;;;;;;5019037;28;20431;-70
2024/03/19 07:14:31;;;;;;;7.43;5.63;;;11.40;99.90;;;;;;5012441;28;20459;-70
2024/03/19 07:16:57;;;;;;;7.20;6.37;;;11.50;99.90;;;;;;5015718;28;20471;-71
2024/03/19 07:19:22;;;;;;;12.57;5.90;;;11.60;99.90;;;;;;5010307;28;20805;-70
2024/03/19 07:21:48;;;;;;;6.40;5.30;;;11.70;99.90;;;;;;5012579;28;20183;-70
2024/03/19 07:24:13;;;;;;;6.10;5.50;;;11.70;99.90;;;;;;5013685;28;20207;-70
2024/03/19 07:26:39;;;;;;;7.60;5.37;;;11.70;99.90;;;;;;5012160;28;20235;-70
2024/03/19 07:29:05;;;;;;;8.77;6.60;;;11.80;99.90;;;;;;5012779;28;20180;-71
2024/03/19 07:31:30;;;;;;;8.60;6.63;;;11.80;99.90;;;;;;5010066;28;20189;-70
2024/03/19 07:33:56;;;;;;;13.93;9.70;;;11.90;99.90;;;;;;5008952;28;20197;-70
2024/03/19 07:36:21;;;;;;;11.60;8.20;;;12.00;99.90;;;;;;5009320;28;20189;-70
2024/03/19 07:38:48;;;;;;;10.03;8.40;;;12.10;99.90;;;;;;5011206;28;20687;-70
2024/03/19 07:41:13;;;;;;;8.80;7.73;;;12.10;99.90;;;;;;5008856;28;20243;-70
2024/03/19 07:43:39;;;;;;;10.43;9.40;;;12.20;99.90;;;;;;5010480;28;20623;-70
2024/03/19 07:46:05;;;;;;;9.53;8.33;;;12.30;99.90;;;;;;5015353;28;20663;-70
2024/03/19 07:48:32;;;;;;;10.20;9.20;;;12.30;99.90;;;;;;5007160;28;20177;-70
2024/03/19 07:50:58;;;;;;;10.67;8.83;;;12.40;99.90;;;;;;5010592;28;20503;-70
2024/03/19 07:53:25;;;;;;;12.20;9.07;;;12.50;99.90;;;;;;5012483;28;20407;-70
2024/03/19 07:55:50;;;;;;;10.97;9.57;;;12.60;99.90;;;;;;5008799;28;20759;-70
2024/03/19 07:58:16;;;;;;;12.37;10.10;;;12.60;99.90;;;;;;5012399;28;20460;-70
2024/03/19 08:00:41;;;;;;;11.87;9.13;;;12.60;99.90;;;;;;5012442;28;20173;-70
2024/03/19 08:03:07;;;;;;;14.20;9.47;;;12.70;99.90;;;;;;5013209;28;20707;-70
2024/03/19 08:05:33;;;;;;;13.27;9.20;;;12.80;99.90;;;;;;5001761;28;20603;-70
2024/03/19 08:07:59;;;;;;;10.30;9.20;;;12.80;99.90;;;;;;5015226;28;20692;-70
2024/03/19 08:10:24;;;;;;;12.17;9.23;;;12.90;99.90;;;;;;5011953;28;20931;-70
2024/03/19 08:12:50;;;;;;;13.27;9.70;;;13.00;99.90;;;;;;5015634;28;20433;-70
2024/03/19 08:15:16;;;;;;;16.37;9.73;;;13.10;99.90;;;;;;5015714;28;20208;-70
2024/03/19 08:17:42;;;;;;;11.63;9.87;;;13.20;99.90;;;;;;5011230;28;20247;-70
2024/03/19 08:20:12;;;;;;;11.87;9.23;;;13.30;99.90;;;;;;5011695;28;20180;-71
2024/03/19 08:22:41;;;;;;;11.30;8.83;;;13.40;99.90;;;;;;5013382;28;21017;-70
2024/03/19 08:25:09;;;;;;;12.40;9.57;;;13.50;99.90;;;;;;5013847;28;20454;-70
2024/03/19 08:27:35;;;;;;;14.10;9.50;;;13.60;99.90;;;;;;5015753;28;20433;-71
2024/03/19 08:30:02;;;;;;;13.13;9.37;;;13.70;99.90;;;;;;5012370;28;20438;-71
2024/03/19 08:32:28;;;;;;;9.83;8.63;;;13.80;99.90;;;;;;5005311;28;20980;-70
2024/03/19 08:34:53;;;;;;;12.63;9.77;;;13.90;99.90;;;;;;5016019;28;20458;-70
2024/03/19 08:37:19;;;;;;;10.00;8.00;;;14.00;99.90;;;;;;5012626;28;20295;-71
2024/03/19 08:39:44;;;;;;;10.63;8.77;;;14.10;99.90;;;;;;5012568;28;20185;-70
2024/03/19 08:42:10;;;;;;;11.80;8.03;;;14.20;99.90;;;;;;5005964;28;20351;-71
2024/03/19 08:44:36;;;;;;;8.77;7.90;;;14.20;99.90;;;;;;5015547;28;20272;-70
2024/03/19 08:47:02;;;;;;;9.73;7.80;;;14.30;99.90;;;;;;5014578;28;20181;-70
2024/03/19 08:49:28;;;;;;;11.70;7.63;;;14.40;99.90;;;;;;5016699;28;20428;-70
2024/03/19 08:51:53;;;;;;;9.60;8.30;;;14.50;99.90;;;;;;5016317;28;20296;-70
2024/03/19 08:54:19;;;;;;;9.40;8.20;;;14.50;99.90;;;;;;5015180;28;20714;-70
2024/03/19 08:56:45;;;;;;;11.60;8.47;;;14.50;99.90;;;;;;5010632;28;20275;-70
2024/03/19 08:59:10;;;;;;;9.87;8.50;;;14.60;99.90;;;;;;5017537;28;20575;-70
2024/03/19 09:01:36;;;;;;;13.10;10.00;;;14.60;99.90;;;;;;5016019;28;20177;-70
2024/03/19 09:04:03;;;;;;;11.97;10.47;;;14.70;99.90;;;;;;5011073;28;20284;-70
2024/03/19 09:06:31;;;;;;;12.70;9.33;;;14.80;99.90;;;;;;5014162;28;20208;-71
2024/03/19 09:08:57;;;;;;;13.13;9.63;;;14.80;99.90;;;;;;5013115;28;20526;-70
2024/03/19 09:11:22;;;;;;;10.37;9.37;;;14.80;99.90;;;;;;5019292;28;20514;-70
2024/03/19 09:13:48;;;;;;;14.20;9.87;;;14.90;99.90;;;;;;5009591;28;20185;-70
2024/03/19 09:16:14;;;;;;;10.50;9.47;;;14.90;99.90;;;;;;5020058;28;20565;-71
2024/03/19 09:18:42;;;;;;;10.87;9.60;;;14.90;99.90;;;;;;5008709;28;20208;-70
2024/03/19 09:21:10;;;;;;;16.37;10.43;;;14.90;99.90;;;;;;5018523;28;20191;-70
2024/03/19 09:23:37;;;;;;;11.33;10.10;;;14.80;99.90;;;;;;5013855;28;20420;-70
2024/03/19 09:26:03;;;;;;;14.60;10.63;;;14.70;99.90;;;;;;5015102;28;20438;-70
2024/03/19 09:28:31;;;;;;;14.70;12.43;;;14.60;99.90;;;;;;5011595;28;20796;-70
2024/03/19 09:30:58;;;;;;;11.77;10.67;;;14.60;99.90;;;;;;5019929;28;20569;-71
2024/03/19 09:33:24;;;;;;;11.13;10.03;;;14.50;99.90;;;;;;5017435;28;20442;-70
2024/03/19 09:35:50;;;;;;;13.27;10.77;;;14.50;99.90;;;;;;5019743;28;20569;-70
2024/03/19 09:38:17;;;;;;;12.63;9.57;;;14.50;99.90;;;;;;5013474;28;20587;-70
2024/03/19 09:40:58;;;;;;;12.63;9.70;;;14.50;99.90;;;;;;5016565;28;20177;-70
2024/03/19 09:43:24;;;;;;;10.57;9.57;;;14.40;99.90;;;;;;5014346;28;20438;-70
2024/03/19 09:45:51;;;;;;;11.00;9.80;;;14.40;99.90;;;;;;5019481;28;20435;-70
2024/03/19 09:48:19;;;;;;;11.93;9.00;;;14.40;99.90;;;;;;5017942;28;20180;-70
2024/03/19 09:50:45;;;;;;;10.40;9.30;;;14.40;99.90;;;;;;5016371;28;20462;-70
2024/03/19 09:53:18;;;;;;;10.20;9.20;;;14.50;99.90;;;;;;5010897;28;20444;-70
2024/03/19 09:55:47;;;;;;;10.27;9.27;;;14.50;99.90;;;;;;5012669;28;20920;-70
2024/03/19 09:58:14;;;;;;;10.77;9.73;;;14.70;99.90;;;;;;5012026;28;20456;-70
2024/03/19 10:00:45;;;;;;;10.87;8.63;;;14.80;99.90;;;;;;5011690;28;20451;-70
2024/03/19 10:03:12;;;;;;;9.10;7.73;;;14.90;99.90;;;;;;5007030;28;20424;-71
2024/03/19 10:05:37;;;;;;;10.20;8.20;;;15.00;99.90;;;;;;5015402;28;20448;-71
2024/03/19 10:08:05;;;;;;;10.53;9.00;;;15.20;99.90;;;;;;5016393;28;20743;-70
2024/03/19 10:10:31;;;;;;;9.33;8.10;;;15.40;99.90;;;;;;5012045;28;20208;-70
2024/03/19 10:12:57;;;;;;;10.27;9.27;;;15.60;99.90;;;;;;5018386;28;20539;-70
2024/03/19 10:15:24;;;;;;;10.37;8.40;;;15.80;99.90;;;;;;5017835;28;20582;-71
2024/03/19 10:17:51;;;;;;;8.97;7.90;;;16.00;99.90;;;;;;5010699;28;20215;-70
2024/03/19 10:20:17;;;;;;;8.90;8.00;;;16.20;99.90;;;;;;5017462;28;20427;-70
2024/03/19 10:22:45;;;;;;;8.93;7.43;;;16.40;99.90;;;;;;5013689;28;20419;-71
2024/03/19 10:25:15;;;;;;;9.13;7.10;;;16.50;99.90;;;;;;5017658;28;20796;-70
2024/03/19 10:27:48;;;;;;;8.00;7.20;;;16.60;99.90;;;;;;5016001;28;21259;-70
2024/03/19 10:30:20;;;;;;;7.90;7.10;;;16.60;99.90;;;;;;5015731;28;20900;-70
2024/03/19 10:32:46;;;;;;;8.13;7.33;;;16.70;99.90;;;;;;5014248;28;20443;-70
2024/03/19 10:35:19;;;;;;;15.23;8.17;;;16.60;99.90;;;;;;5029247;28;20447;-70
2024/03/19 10:37:49;;;;;;;8.13;7.30;;;16.70;99.90;;;;;;5013585;28;20877;-70
2024/03/19 10:40:17;;;;;;;8.07;7.27;;;16.80;99.90;;;;;;5011200;28;20427;-70
2024/03/19 10:42:44;;;;;;;7.83;7.03;;;17.00;99.90;;;;;;5015342;28;20511;-70
2024/03/19 10:45:17;;;;;;;8.23;7.47;;;17.30;99.90;;;;;;5011009;28;20479;-70
2024/03/19 10:47:43;;;;;;;9.17;8.27;;;17.50;99.90;;;;;;5016245;28;20443;-70
2024/03/19 10:50:13;;;;;;;10.57;9.47;;;17.60;99.90;;;;;;5014604;28;20514;-70
2024/03/19 10:52:41;;;;;;;9.87;8.97;;;17.60;99.90;;;;;;5012912;28;20428;-70
2024/03/19 10:55:13;;;;;;;9.90;9.00;;;17.60;99.90;;;;;;5011983;28;20446;-71
2024/03/19 10:57:40;;;;;;;10.87;9.77;;;17.80;99.90;;;;;;5010496;28;20560;-70
2024/03/19 11:00:18;;;;;;;11.17;10.07;;;18.10;99.90;;;;;;5016270;28;20502;-71
2024/03/19 11:02:47;;;;;;;10.03;9.03;;;18.20;99.90;;;;;;5012676;28;20465;-70
2024/03/19 11:05:20;;;;;;;11.80;10.57;;;18.40;99.90;;;;;;5005260;28;20523;-70
2024/03/19 11:07:50;;;;;;;11.33;10.33;;;18.60;99.90;;;;;;5011172;28;20419;-70
2024/03/19 11:10:35;;;;;;;10.27;9.30;;;18.70;99.90;;;;;;5009852;28;20428;-70
2024/03/19 11:13:11;;;;;;;14.73;13.13;;;18.80;99.90;;;;;;5018706;28;20496;-70
2024/03/19 11:15:40;;;;;;;10.67;9.47;;;18.90;99.90;;;;;;5009046;28;20467;-70
2024/03/19 11:18:12;;;;;;;10.30;9.30;;;19.00;99.90;;;;;;5011759;28;20512;-70
2024/03/19 11:20:51;;;;;;;9.80;8.80;;;19.10;99.90;;;;;;5016960;28;20938;-70
2024/03/19 11:23:25;;;;;;;10.57;9.13;;;19.10;99.90;;;;;;5012462;28;20403;-70
2024/03/19 11:25:54;;;;;;;10.00;8.47;;;18.90;99.90;;;;;;5013503;28;20478;-70
2024/03/19 11:28:27;;;;;;;10.60;9.70;;;19.10;99.90;;;;;;5014101;28;20423;-70
2024/03/19 11:30:58;;;;;;;10.60;9.50;;;19.30;99.90;;;;;;5014284;28;20449;-70
2024/03/19 11:33:25;;;;;;;10.17;9.17;;;19.50;99.90;;;;;;5016929;28;20424;-70
2024/03/19 11:35:54;;;;;;;11.00;9.50;;;19.60;99.90;;;;;;5017124;28;20466;-71
2024/03/19 11:38:21;;;;;;;10.60;9.60;;;19.70;99.90;;;;;;5016060;28;20589;-70
2024/03/19 11:40:48;;;;;;;10.60;9.60;;;19.70;99.90;;;;;;5017013;28;20434;-70
2024/03/19 11:43:16;;;;;;;9.17;8.27;;;19.70;99.90;;;;;;5008715;28;20493;-70
2024/03/19 11:45:47;;;;;;;9.23;8.40;;;19.70;99.90;;;;;;5014954;28;20451;-70
2024/03/19 11:48:22;;;;;;;9.10;8.30;;;19.90;99.90;;;;;;5014578;28;20422;-70
2024/03/19 11:50:48;;;;;;;9.47;8.57;;;20.00;99.90;;;;;;5012074;28;20421;-70
2024/03/19 11:53:18;;;;;;;11.17;7.77;;;20.10;99.90;;;;;;5018921;28;20419;-70
2024/03/19 11:55:44;;;;;;;9.63;8.63;;;20.10;99.90;;;;;;5018407;28;20494;-70
2024/03/19 11:58:10;;;;;;;9.70;8.70;;;20.20;99.90;;;;;;5020485;28;20498;-70
2024/03/19 12:00:37;;;;;;;9.97;9.07;;;20.20;99.90;;;;;;5015100;28;20426;-71
2024/03/19 12:03:04;;;;;;;8.20;7.50;;;20.30;99.90;;;;;;5019766;28;20415;-70
2024/03/19 12:05:29;;;;;;;9.53;8.57;;;20.30;99.90;;;;;;5012874;28;20435;-70
2024/03/19 12:07:56;;;;;;;9.80;8.83;;;20.60;99.90;;;;;;5015912;28;20510;-71
2024/03/19 12:10:24;;;;;;;8.73;7.93;;;21.10;99.90;;;;;;5011013;28;20250;-70
2024/03/19 12:12:51;;;;;;;10.40;8.20;;;22.40;99.90;;;;;;5013667;28;20419;-70
2024/03/19 12:15:19;;;;;;;9.00;8.10;;;23.70;99.90;;;;;;5012396;28;21011;-71
2024/03/19 12:17:47;;;;;;;7.43;6.37;;;24.80;99.90;;;;;;5014644;28;21072;-71
2024/03/19 12:20:15;;;;;;;6.90;6.20;;;25.70;99.90;;;;;;5016634;28;20422;-71
2024/03/19 12:22:52;;;;;;;6.40;5.80;;;26.70;99.90;;;;;;5020508;28;20411;-71
2024/03/19 12:25:22;;;;;;;6.23;5.63;;;27.80;99.90;;;;;;5019146;28;20524;-71
2024/03/19 12:27:48;;;;;;;6.93;6.30;;;28.80;99.90;;;;;;5013408;28;20443;-71
2024/03/19 12:30:16;;;;;;;5.93;5.43;;;29.40;99.90;;;;;;5029155;28;20444;-71
2024/03/19 12:35:31;;;;;;;11.90;5.17;;;30.10;97.30;;;;;;5012106;28;21095;-71
2024/03/19 12:37:57;;;;;;;5.13;4.40;;;30.50;94.90;;;;;;5017290;28;20888;-70
2024/03/19 12:40:24;;;;;;;6.37;4.80;;;30.90;91.20;;;;;;5017554;28;20432;-71
2024/03/19 12:42:51;;;;;;;5.60;4.70;;;31.30;87.60;;;;;;5009618;28;20682;-70